• Join FlightAware (Why Join?)
  • Login
  • US Flag 
03:54AM EDT


 

Airport Tracker/Info


-or-


 

Live Flight TrackerFlight Track Log ✈ CSN3677 ✈ 03-Jun-2012 ✈ ZGSZ / SZX - ZYTL / DLC

Flight Track Log - Related Links

Times and Time Zones

All times are in EDT time to prevent confusion due to time zone crossing. See the CSN3677 flight status page for this flight to view local times or setup timezone preferences in your user account.

Time Position Orientation Groundspeed Altitude Reporting Facility
EDT Latitude Longitude Course Direction KTS MPH feet Rate Location/Type
10:11PM 24.1135 114.4076 20° North  Level Estimated
10:12PM 24.2083 114.4464 20° North  Level Estimated
10:13PM 24.3032 114.4852 20° North  Level Estimated
10:14PM 24.3980 114.5241 21° North  Level Estimated
10:15PM 24.4928 114.5630 21° North  Level Estimated
10:16PM 24.5875 114.6020 21° North  Level Estimated
10:17PM 24.6823 114.6411 21° North  Level Estimated
10:18PM 24.7771 114.6802 21° North  Level Estimated
10:19PM 24.8718 114.7194 21° North  Level Estimated
10:20PM 24.9666 114.7587 21° North  Level Estimated
10:21PM 25.0613 114.7980 21° North  Level Estimated
10:22PM 25.1560 114.8374 21° North  Level Estimated
10:23PM 25.2507 114.8768 21° North  Level Estimated
10:24PM 25.3454 114.9163 21° North  Level Estimated
10:25PM 25.4401 114.9558 21° North  Level Estimated
10:26PM 25.5348 114.9955 21° North  Level Estimated
10:27PM 25.6294 115.0351 21° North  Level Estimated
10:28PM 25.7241 115.0749 21° North  Level Estimated
10:29PM 25.8187 115.1147 21° North  Level Estimated
10:30PM 25.9133 115.1546 21° North  Level Estimated
10:31PM 26.0080 115.1945 21° North  Level Estimated
10:32PM 26.1026 115.2345 21° North  Level Estimated
10:33PM 26.1972 115.2746 21° North  Level Estimated
10:34PM 26.2918 115.3147 21° North  Level Estimated
10:35PM 26.3864 115.3549 21° North  Level Estimated
10:36PM 26.4809 115.3951 21° North  Level Estimated
10:37PM 26.5755 115.4354 21° North  Level Estimated
10:38PM 26.6700 115.4758 21° North  Level Estimated
10:39PM 26.7645 115.5163 21° North  Level Estimated
10:40PM 26.8591 115.5568 21° North  Level Estimated
10:41PM 26.9536 115.5974 21° North  Level Estimated
10:42PM 27.0481 115.6381 21° North  Level Estimated
10:43PM 27.1426 115.6788 21° North  Level Estimated
10:44PM 27.2370 115.7196 21° North  Level Estimated
10:45PM 27.3315 115.7605 21° North  Level Estimated
10:46PM 27.4259 115.8014 21° North  Level Estimated
10:47PM 27.5204 115.8424 21° North  Level Estimated
10:48PM 27.6148 115.8835 21° North  Level Estimated
10:49PM 27.7092 115.9247 21° North  Level Estimated
10:50PM 27.8036 115.9659 21° North  Level Estimated
10:51PM 27.8980 116.0072 21° North  Level Estimated
10:52PM 27.9924 116.0485 21° North  Level Estimated
10:53PM 28.0868 116.0900 21° North  Level Estimated
10:54PM 28.1811 116.1315 21° North  Level Estimated
10:55PM 28.2754 116.1731 21° North  Level Estimated
10:56PM 28.3698 116.2147 21° North  Level Estimated
10:57PM 28.4641 116.2565 21° North  Level Estimated
10:58PM 28.5584 116.2983 21° North  Level Estimated
10:59PM 28.6527 116.3402 21° North  Level Estimated
11:00PM 28.7470 116.3821 21° North  Level Estimated
11:01PM 28.8412 116.4241 21° North  Level Estimated
11:02PM 28.9355 116.4662 21° North  Level Estimated
11:03PM 29.0297 116.5084 21° North  Level Estimated
11:04PM 29.1239 116.5507 21° North  Level Estimated
11:05PM 29.2181 116.5930 21° North  Level Estimated
11:06PM 29.3123 116.6355 21° North  Level Estimated
11:07PM 29.4065 116.6779 21° North  Level Estimated
11:08PM 29.5007 116.7205 21° North  Level Estimated
11:09PM 29.5948 116.7632 22° Northeast  Level Estimated
11:10PM 29.6890 116.8059 22° Northeast  Level Estimated
11:11PM 29.7831 116.8487 22° Northeast  Level Estimated
11:12PM 29.8772 116.8916 22° Northeast  Level Estimated
11:13PM 29.9713 116.9346 22° Northeast  Level Estimated
11:14PM 30.0654 116.9776 22° Northeast  Level Estimated
11:15PM 30.1595 117.0208 22° Northeast  Level Estimated
11:16PM 30.2535 117.0640 22° Northeast  Level Estimated
11:17PM 30.3476 117.1073 22° Northeast  Level Estimated
11:18PM 30.4416 117.1507 22° Northeast  Level Estimated
11:19PM 30.5356 117.1942 22° Northeast  Level Estimated
11:20PM 30.6296 117.2377 22° Northeast  Level Estimated
11:21PM 30.7236 117.2814 22° Northeast  Level Estimated
11:22PM 30.8176 117.3251 22° Northeast  Level Estimated
11:23PM 30.9116 117.3689 22° Northeast  Level Estimated
11:24PM 31.0055 117.4128 22° Northeast  Level Estimated
11:25PM 31.0994 117.4568 22° Northeast  Level Estimated
11:26PM 31.1933 117.5008 22° Northeast  Level Estimated
11:27PM 31.2872 117.5450 22° Northeast  Level Estimated
11:28PM 31.3811 117.5892 22° Northeast  Level Estimated
11:29PM 31.4750 117.6336 22° Northeast  Level Estimated
11:30PM 31.5688 117.6780 22° Northeast  Level Estimated
11:31PM 31.6627 117.7225 22° Northeast  Level Estimated
11:32PM 31.7565 117.7671 22° Northeast  Level Estimated
11:33PM 31.8503 117.8118 22° Northeast  Level Estimated
11:34PM 31.9441 117.8566 22° Northeast  Level Estimated
11:35PM 32.0379 117.9015 22° Northeast  Level Estimated
11:36PM 32.1316 117.9464 22° Northeast  Level Estimated
11:37PM 32.2254 117.9915 22° Northeast  Level Estimated
11:38PM 32.3191 118.0367 22° Northeast  Level Estimated
11:39PM 32.4128 118.0819 22° Northeast  Level Estimated
11:40PM 32.5065 118.1273 22° Northeast  Level Estimated
11:41PM 32.6002 118.1727 22° Northeast  Level Estimated
11:42PM 32.6938 118.2182 22° Northeast  Level Estimated
11:43PM 32.7875 118.2638 22° Northeast  Level Estimated
11:44PM 32.8811 118.3096 22° Northeast  Level Estimated
11:45PM 32.9747 118.3554 22° Northeast  Level Estimated
11:46PM 33.0683 118.4013 22° Northeast  Level Estimated
11:47PM 33.1619 118.4473 22° Northeast  Level Estimated
11:48PM 33.2554 118.4934 22° Northeast  Level Estimated
11:49PM 33.3490 118.5396 22° Northeast  Level Estimated
11:50PM 33.4425 118.5860 22° Northeast  Level Estimated
11:51PM 33.5360 118.6324 22° Northeast  Level Estimated
11:52PM 33.6295 118.6789 23° Northeast  Level Estimated
11:53PM 33.7230 118.7255 23° Northeast  Level Estimated
11:54PM 33.8164 118.7722 23° Northeast  Level Estimated
11:55PM 33.9099 118.8190 23° Northeast  Level Estimated
11:56PM 34.0033 118.8659 23° Northeast  Level Estimated
11:57PM 34.0967 118.9130 23° Northeast  Level Estimated
11:58PM 34.1901 118.9601 23° Northeast  Level Estimated
11:59PM 34.2835 119.0073 23° Northeast  Level Estimated
12:00AM 34.3768 119.0546 23° Northeast  Level Estimated
12:01AM 34.4701 119.1021 23° Northeast  Level Estimated
12:02AM 34.5634 119.1496 23° Northeast  Level Estimated
12:03AM 34.6567 119.1973 23° Northeast  Level Estimated
12:04AM 34.7500 119.2451 23° Northeast  Level Estimated
12:05AM 34.8433 119.2929 23° Northeast  Level Estimated
12:06AM 34.9365 119.3409 23° Northeast  Level Estimated
12:07AM 35.0297 119.3890 23° Northeast  Level Estimated
12:08AM 35.1229 119.4372 23° Northeast  Level Estimated
12:09AM 35.2161 119.4855 23° Northeast  Level Estimated
12:10AM 35.3093 119.5339 23° Northeast  Level Estimated
12:11AM 35.4024 119.5825 23° Northeast  Level Estimated
12:12AM 35.4955 119.6311 23° Northeast  Level Estimated
12:13AM 35.5886 119.6799 23° Northeast  Level Estimated
12:14AM 35.6817 119.7287 23° Northeast  Level Estimated
12:15AM 35.7748 119.7777 23° Northeast  Level Estimated
12:16AM 35.8678 119.8268 23° Northeast  Level Estimated
12:17AM 35.9608 119.8760 23° Northeast  Level Estimated
12:18AM 36.0538 119.9254 23° Northeast  Level Estimated
12:19AM 36.1468 119.9748 23° Northeast  Level Estimated
12:20AM 36.2398 120.0244 23° Northeast  Level Estimated
12:21AM 36.3327 120.0741 23° Northeast  Level Estimated
12:22AM 36.4256 120.1238 23° Northeast  Level Estimated
12:23AM 36.5185 120.1738 23° Northeast  Level Estimated
12:24AM 36.6114 120.2238 23° Northeast  Level Estimated
12:25AM 36.7043 120.2740 23° Northeast  Level Estimated
12:26AM 36.7971 120.3242 23° Northeast  Level Estimated
12:27AM 36.8899 120.3746 24° Northeast  Level Estimated
12:28AM 36.9827 120.4252 24° Northeast  Level Estimated
12:29AM 37.0755 120.4758 24° Northeast  Level Estimated
12:30AM 37.1683 120.5266 24° Northeast  Level Estimated
12:31AM 37.2610 120.5775 24° Northeast  Level Estimated
12:32AM 37.3537 120.6285 24° Northeast  Level Estimated
12:33AM 37.4464 120.6797 24° Northeast  Level Estimated
12:34AM 37.5391 120.7309 24° Northeast  Level Estimated
12:35AM 37.6317 120.7823 24° Northeast  Level Estimated
12:36AM 37.7243 120.8339 24° Northeast  Level Estimated
12:37AM 37.8169 120.8855 24° Northeast  Level Estimated
12:38AM 37.9095 120.9373 24° Northeast  Level Estimated
12:39AM 38.0020 120.9893 24° Northeast  Level Estimated
12:40AM 38.0946 121.0413 24° Northeast  Level Estimated
12:41AM 38.1871 121.0935 24° Northeast  Level Estimated
12:42AM 38.2796 121.1458 24° Northeast  Level Estimated
12:43AM 38.3720 121.1983 24° Northeast  Level Estimated
12:44AM 38.4645 121.2509 24° Northeast  Level Estimated
12:45AM 38.5569 121.3036 24° Northeast  Level Estimated
12:46AM 38.6493 121.3564 24° Northeast  Level Estimated
12:47AM 38.7416 121.4094 24° Northeast  Level Estimated
12:48AM 38.8340 121.4626 24° Northeast  Level Estimated
12:49AM 38.9263 121.5158 24° Northeast  Level Estimated
12:50AM 39.0186 121.5692 204° Southwest  Level Estimated
12:51AM 38.9263 121.5158 24° Northeast  Level Estimated
12:52AM 39.0186 121.5692 204° Southwest  Level Estimated
12:53AM 38.9263 121.5158 24° Northeast  Level Estimated
12:54AM 39.0186 121.5692 204° Southwest  Level Estimated
12:55AM 38.9263 121.5158 24° Northeast  Level Estimated
12:56AM 39.0186 121.5692 204° Southwest  Level Estimated
12:57AM 38.9263 121.5158 24° Northeast  Level Estimated
12:58AM 39.0186 121.5692 204° Southwest  Level Estimated
12:59AM 38.9263 121.5158 24° Northeast  Level Estimated
01:00AM 39.0186 121.5692 204° Southwest  Level Estimated
01:01AM 38.9263 121.5158 24° Northeast  Level Estimated
01:02AM 39.0186 121.5692 204° Southwest  Level Estimated
01:03AM 38.9263 121.5158 24° Northeast  Level Estimated
01:04AM 39.0186 121.5692 204° Southwest  Level Estimated
01:05AM 38.9263 121.5158 204° Southwest  Level Estimated